Time;durP1;ratioP1;P1;durP2;ratioP2;P2;SDS_P1;SDS_P2;PMS_P1;PMS_P2;Temp;Humidity;BMP_temperature;BMP_pressure;BME280_temperature;BME280_humidity;BME280_pressure;Samples;Min_cycle;Max_cycle;Signal;HPM_P1;HPM_P2
2023/04/02 00:02:26;;;;;;;7.10;3.20;;;;;;;;;;5034007;28;20049;-78
2023/04/02 00:05:14;;;;;;;7.53;3.70;;;;;;;;;;5052451;28;20416;-78
2023/04/02 00:07:43;;;;;;;6.35;3.60;;;;;;;;;;5068624;28;20053;-77
2023/04/02 00:10:29;;;;;;;10.23;3.80;;;;;;;;;;5068139;28;20497;-78
2023/04/02 00:13:06;;;;;;;8.88;4.07;;;;;;;;;;5056364;28;20060;-78
2023/04/02 00:15:33;;;;;;;9.60;4.05;;;;;;;;;;5034225;28;20045;-78
2023/04/02 00:18:00;;;;;;;9.02;3.80;;;;;;;;;;5051771;28;20482;-77
2023/04/02 00:20:27;;;;;;;8.13;4.05;;;;;;;;;;5063273;28;20094;-78
2023/04/02 00:22:53;;;;;;;9.05;3.65;;;;;;;;;;5061715;28;20066;-78
2023/04/02 00:25:19;;;;;;;9.50;4.10;;;;;;;;;;5048493;28;20053;-78
2023/04/02 00:27:45;;;;;;;8.93;4.07;;;;;;;;;;5037835;28;20041;-78
2023/04/02 00:30:12;;;;;;;7.63;3.78;;;;;;;;;;5067565;28;20440;-78
2023/04/02 00:32:39;;;;;;;6.47;3.67;;;;;;;;;;5052175;28;20398;-78
2023/04/02 00:35:11;;;;;;;8.60;3.60;;;;;;;;;;5064016;28;20127;-78
2023/04/02 00:37:40;;;;;;;10.38;4.13;;;;;;;;;;5061354;28;20048;-77
2023/04/02 00:40:27;;;;;;;10.52;3.95;;;;;;;;;;5071742;28;20520;-78
2023/04/02 00:42:53;;;;;;;;;;;;;;;;;;5053500;28;20416;-78
2023/04/02 00:45:22;;;;;;;9.05;4.03;;;;;;;;;;5053857;28;19920;-78
2023/04/02 00:47:48;;;;;;;9.05;3.75;;;;;;;;;;5053757;28;20070;-77
2023/04/02 00:50:14;;;;;;;8.88;3.65;;;;;;;;;;5053898;28;20041;-78
2023/04/02 00:52:42;;;;;;;8.20;3.75;;;;;;;;;;5042439;28;20077;-78
2023/04/02 00:55:13;;;;;;;8.93;4.18;;;;;;;;;;5021035;28;20099;-78
2023/04/02 00:57:43;;;;;;;9.10;3.88;;;;;;;;;;5037619;28;20555;-78
2023/04/02 01:00:21;;;;;;;7.75;3.40;;;;;;;;;;5037456;28;20037;-78
2023/04/02 01:03:06;;;;;;;8.10;3.70;;;;;;;;;;5055048;28;20056;-78
2023/04/02 01:05:35;;;;;;;9.20;4.13;;;;;;;;;;5037682;28;20045;-78
2023/04/02 01:08:06;;;;;;;11.27;3.80;;;;;;;;;;5024434;28;20072;-78
2023/04/02 01:10:50;;;;;;;9.23;3.70;;;;;;;;;;5048371;28;20045;-78
2023/04/02 01:13:28;;;;;;;7.65;4.07;;;;;;;;;;5052877;28;20501;-77
2023/04/02 01:16:06;;;;;;;7.07;3.65;;;;;;;;;;5037747;28;20051;-78
2023/04/02 01:18:45;;;;;;;8.88;3.72;;;;;;;;;;5037126;28;20041;-78
2023/04/02 01:21:32;;;;;;;7.88;3.63;;;;;;;;;;5054067;28;20049;-78
2023/04/02 01:23:58;;;;;;;9.07;3.50;;;;;;;;;;5038015;28;20319;-78
2023/04/02 01:26:39;;;;;;;9.55;3.50;;;;;;;;;;5057454;28;20037;-78
2023/04/02 01:29:13;;;;;;;9.70;3.90;;;;;;;;;;5066824;28;20051;-77
2023/04/02 01:31:40;;;;;;;6.38;3.25;;;;;;;;;;5070257;28;20059;-78
2023/04/02 01:34:08;;;;;;;8.65;4.00;;;;;;;;;;5065183;28;20080;-78
2023/04/02 01:37:12;;;;;;;7.82;4.00;;;;;;;;;;5064083;28;20456;-78
2023/04/02 01:39:50;;;;;;;12.57;4.10;;;;;;;;;;4982243;28;20399;-78
2023/04/02 01:42:20;;;;;;;7.40;3.63;;;;;;;;;;4992852;28;20132;-78
2023/04/02 01:44:49;;;;;;;7.85;3.85;;;;;;;;;;5020170;28;20091;-77
2023/04/02 01:47:16;;;;;;;9.98;3.58;;;;;;;;;;5054566;28;20135;-78
2023/04/02 01:49:43;;;;;;;8.18;3.60;;;;;;;;;;5058670;28;20094;-78
2023/04/02 01:52:13;;;;;;;9.52;3.53;;;;;;;;;;5065366;28;20080;-78
2023/04/02 01:54:39;;;;;;;9.50;3.78;;;;;;;;;;5069906;28;20477;-78
2023/04/02 01:57:07;;;;;;;5.97;3.40;;;;;;;;;;5058010;28;20349;-78
2023/04/02 01:59:33;;;;;;;6.30;3.28;;;;;;;;;;5054515;28;20049;-78
2023/04/02 02:02:06;;;;;;;6.72;3.20;;;;;;;;;;5054277;28;20048;-78
2023/04/02 02:04:33;;;;;;;8.52;3.20;;;;;;;;;;5054220;28;20060;-78
2023/04/02 02:06:59;;;;;;;7.47;3.72;;;;;;;;;;5036525;28;20120;-78
2023/04/02 02:09:27;;;;;;;7.03;3.00;;;;;;;;;;5050285;28;20048;-78
2023/04/02 02:11:53;;;;;;;10.48;3.50;;;;;;;;;;5050892;28;20053;-78
2023/04/02 02:14:24;;;;;;;8.73;3.20;;;;;;;;;;5022364;28;20123;-78
2023/04/02 02:16:52;;;;;;;6.72;3.17;;;;;;;;;;5074236;28;20040;-77
2023/04/02 02:19:26;;;;;;;5.07;2.70;;;;;;;;;;5073871;28;20173;-78
2023/04/02 02:21:54;;;;;;;7.88;2.90;;;;;;;;;;5073756;28;20120;-78
2023/04/02 02:24:23;;;;;;;7.57;2.88;;;;;;;;;;5073398;28;20041;-78
2023/04/02 02:26:51;;;;;;;6.63;2.85;;;;;;;;;;5069198;28;20041;-78
2023/04/02 02:29:19;;;;;;;8.30;3.05;;;;;;;;;;5063443;28;20084;-77
2023/04/02 02:31:47;;;;;;;7.32;2.90;;;;;;;;;;5048668;28;20052;-77
2023/04/02 02:34:20;;;;;;;5.95;2.67;;;;;;;;;;5072093;28;20044;-78
2023/04/02 02:36:54;;;;;;;9.10;2.60;;;;;;;;;;5070485;28;20041;-77
2023/04/02 02:39:25;;;;;;;5.82;2.45;;;;;;;;;;5055018;28;20499;-78
2023/04/02 02:41:59;;;;;;;8.32;2.80;;;;;;;;;;5060311;28;20523;-78
2023/04/02 02:44:26;;;;;;;5.80;2.70;;;;;;;;;;5067258;28;20182;-77
2023/04/02 02:47:12;;;;;;;6.00;2.42;;;;;;;;;;5053616;28;20041;-78
2023/04/02 02:49:43;;;;;;;7.65;2.67;;;;;;;;;;5043228;28;20395;-78
2023/04/02 02:52:09;;;;;;;6.97;2.40;;;;;;;;;;5051649;28;20489;-78
2023/04/02 02:54:36;;;;;;;6.95;2.80;;;;;;;;;;5021668;28;20091;-78
2023/04/02 02:57:05;;;;;;;8.27;2.85;;;;;;;;;;5068562;28;20040;-78
2023/04/02 02:59:31;;;;;;;7.20;2.67;;;;;;;;;;5053391;28;20037;-78
2023/04/02 03:01:58;;;;;;;5.25;2.40;;;;;;;;;;5060027;28;20090;-78
2023/04/02 03:04:24;;;;;;;5.03;2.42;;;;;;;;;;5052554;28;20040;-78
2023/04/02 03:06:55;;;;;;;8.18;3.03;;;;;;;;;;5052191;28;20041;-78
2023/04/02 03:09:33;;;;;;;8.52;2.80;;;;;;;;;;5061673;28;20072;-78
2023/04/02 03:12:07;;;;;;;8.75;2.78;;;;;;;;;;5049354;28;20044;-78
2023/04/02 03:14:37;;;;;;;8.98;2.65;;;;;;;;;;5068019;28;20056;-78
2023/04/02 03:17:17;;;;;;;7.03;2.72;;;;;;;;;;5063798;28;20048;-78
2023/04/02 03:19:46;;;;;;;8.30;2.90;;;;;;;;;;5050540;28;20434;-78
2023/04/02 03:22:19;;;;;;;5.80;2.55;;;;;;;;;;5068050;28;20414;-77
2023/04/02 03:24:45;;;;;;;6.85;2.70;;;;;;;;;;5056243;28;20390;-77
2023/04/02 03:27:15;;;;;;;8.18;2.53;;;;;;;;;;5038382;28;20202;-78
2023/04/02 03:29:43;;;;;;;9.38;2.70;;;;;;;;;;5071213;28;20544;-78
2023/04/02 03:32:16;;;;;;;7.40;2.70;;;;;;;;;;5061673;28;20048;-77
2023/04/02 03:34:48;;;;;;;7.72;2.70;;;;;;;;;;5072699;28;20055;-77
2023/04/02 03:37:16;;;;;;;8.00;2.70;;;;;;;;;;5070933;28;20097;-78
2023/04/02 03:39:55;;;;;;;6.20;2.65;;;;;;;;;;5069879;28;20094;-78
2023/04/02 03:42:24;;;;;;;8.35;2.65;;;;;;;;;;5050234;28;20509;-78
2023/04/02 03:44:56;;;;;;;5.03;2.50;;;;;;;;;;5051818;28;20108;-78
2023/04/02 03:47:36;;;;;;;8.40;2.90;;;;;;;;;;5068874;28;20056;-78
2023/04/02 03:50:02;;;;;;;8.88;2.80;;;;;;;;;;5041268;28;20037;-78
2023/04/02 03:52:28;;;;;;;9.43;3.28;;;;;;;;;;5054059;28;20610;-78
2023/04/02 03:54:56;;;;;;;7.20;2.70;;;;;;;;;;5058087;28;20211;-78
2023/04/02 03:57:25;;;;;;;8.57;2.50;;;;;;;;;;5034507;28;20093;-78
2023/04/02 03:59:57;;;;;;;8.95;2.65;;;;;;;;;;5034537;28;20037;-78
2023/04/02 04:02:26;;;;;;;7.30;2.60;;;;;;;;;;5051938;28;20044;-78
2023/04/02 04:04:53;;;;;;;6.78;2.75;;;;;;;;;;5052254;28;20045;-77
2023/04/02 04:07:30;;;;;;;8.10;2.72;;;;;;;;;;5050685;28;20048;-78
2023/04/02 04:09:57;;;;;;;8.70;2.80;;;;;;;;;;5072643;28;20044;-77
2023/04/02 04:12:34;;;;;;;8.30;2.90;;;;;;;;;;5071235;28;20091;-77
2023/04/02 04:15:15;;;;;;;8.73;2.55;;;;;;;;;;5072406;28;20044;-77
2023/04/02 04:18:02;;;;;;;7.40;2.78;;;;;;;;;;5071750;28;20134;-77
2023/04/02 04:20:34;;;;;;;9.38;2.90;;;;;;;;;;5072098;28;20048;-78
2023/04/02 04:23:15;;;;;;;8.77;2.63;;;;;;;;;;5039452;28;20028;-77
2023/04/02 04:25:41;;;;;;;6.80;2.80;;;;;;;;;;5055282;28;20040;-78
2023/04/02 04:28:23;;;;;;;7.07;2.90;;;;;;;;;;5072118;28;20044;-77
2023/04/02 04:31:02;;;;;;;12.10;3.10;;;;;;;;;;5071573;28;20036;-77
2023/04/02 04:33:38;;;;;;;7.55;2.75;;;;;;;;;;5064971;28;20048;-78
2023/04/02 04:36:06;;;;;;;7.95;2.50;;;;;;;;;;5043208;28;20073;-78
2023/04/02 04:38:33;;;;;;;9.90;2.60;;;;;;;;;;5069043;28;20084;-77
2023/04/02 04:41:05;;;;;;;8.82;2.78;;;;;;;;;;5071923;28;20051;-78
2023/04/02 04:43:31;;;;;;;6.72;2.45;;;;;;;;;;5070003;28;20361;-77
2023/04/02 04:46:02;;;;;;;6.78;2.70;;;;;;;;;;5061965;28;20028;-77
2023/04/02 04:48:37;;;;;;;8.10;2.70;;;;;;;;;;5064824;28;20057;-78
2023/04/02 04:51:05;;;;;;;7.30;2.50;;;;;;;;;;5069749;28;20037;-78
2023/04/02 04:53:31;;;;;;;6.47;2.53;;;;;;;;;;5042433;28;20052;-77
2023/04/02 04:56:01;;;;;;;9.43;3.00;;;;;;;;;;5053208;28;20366;-78
2023/04/02 04:58:59;;;;;;;8.02;2.67;;;;;;;;;;5055278;28;20049;-77
2023/04/02 05:01:40;;;;;;;5.88;2.47;;;;;;;;;;5029952;28;20064;-77
2023/04/02 05:04:15;;;;;;;7.68;2.88;;;;;;;;;;5053937;28;20048;-77
2023/04/02 05:06:53;;;;;;;6.83;2.90;;;;;;;;;;5069070;28;20127;-77
2023/04/02 05:09:32;;;;;;;5.60;2.30;;;;;;;;;;5055783;28;20294;-77
2023/04/02 05:12:01;;;;;;;5.32;2.55;;;;;;;;;;5061716;28;20489;-77
2023/04/02 05:14:30;;;;;;;7.85;2.83;;;;;;;;;;5074902;28;20080;-77
2023/04/02 05:17:08;;;;;;;7.32;2.70;;;;;;;;;;5063224;28;20091;-77
2023/04/02 05:19:35;;;;;;;7.22;2.78;;;;;;;;;;5067111;28;20463;-77
2023/04/02 05:22:01;;;;;;;7.07;2.58;;;;;;;;;;5073639;28;20438;-78
2023/04/02 05:24:26;;;;;;;11.02;2.78;;;;;;;;;;5070601;28;20059;-78
2023/04/02 05:26:56;;;;;;;6.50;2.40;;;;;;;;;;5056993;28;20099;-77
2023/04/02 05:29:29;;;;;;;6.18;2.28;;;;;;;;;;5064363;28;20041;-77
2023/04/02 05:31:58;;;;;;;9.10;2.55;;;;;;;;;;5067164;28;20083;-77
2023/04/02 05:34:27;;;;;;;6.80;2.70;;;;;;;;;;5045834;28;20045;-78
2023/04/02 05:36:54;;;;;;;8.32;2.75;;;;;;;;;;5065210;28;20091;-77
2023/04/02 05:39:24;;;;;;;8.95;2.97;;;;;;;;;;5055511;28;20052;-77
2023/04/02 05:41:59;;;;;;;8.50;2.60;;;;;;;;;;5060519;28;20048;-77
2023/04/02 05:44:27;;;;;;;5.57;2.42;;;;;;;;;;5056360;28;20120;-77
2023/04/02 05:46:59;;;;;;;9.20;2.90;;;;;;;;;;5056891;28;20400;-77
2023/04/02 05:49:25;;;;;;;6.85;2.65;;;;;;;;;;5054548;28;20120;-77
2023/04/02 05:51:53;;;;;;;6.40;2.55;;;;;;;;;;5065342;28;20037;-77
2023/04/02 05:54:23;;;;;;;10.75;2.67;;;;;;;;;;5054223;28;20488;-77
2023/04/02 05:56:52;;;;;;;9.25;2.60;;;;;;;;;;5068407;28;20051;-77
2023/04/02 05:59:21;;;;;;;6.30;2.50;;;;;;;;;;5056107;28;20043;-77
2023/04/02 06:02:02;;;;;;;7.38;2.58;;;;;;;;;;5056481;28;20052;-77
2023/04/02 06:05:06;;;;;;;7.47;2.80;;;;;;;;;;5074236;28;20048;-77
2023/04/02 06:07:45;;;;;;;7.45;2.35;;;;;;;;;;5012094;28;20128;-79
2023/04/02 06:10:14;;;;;;;6.70;2.60;;;;;;;;;;4995908;28;20046;-79
2023/04/02 06:12:53;;;;;;;6.05;2.22;;;;;;;;;;5038382;28;20393;-79
2023/04/02 06:15:20;;;;;;;6.38;2.40;;;;;;;;;;5054139;28;20130;-79
2023/04/02 06:17:47;;;;;;;6.35;2.30;;;;;;;;;;5049662;28;20488;-80
2023/04/02 06:20:16;;;;;;;6.03;2.45;;;;;;;;;;5039557;28;20041;-80
2023/04/02 06:22:44;;;;;;;7.70;2.50;;;;;;;;;;5054523;28;20055;-79
2023/04/02 06:25:17;;;;;;;6.80;2.38;;;;;;;;;;5039580;28;20477;-79
2023/04/02 06:27:45;;;;;;;6.13;2.33;;;;;;;;;;5039004;28;20105;-79
2023/04/02 06:30:16;;;;;;;6.53;2.55;;;;;;;;;;5073603;28;20083;-80
2023/04/02 06:32:42;;;;;;;9.63;2.88;;;;;;;;;;5069913;28;20059;-79
2023/04/02 06:35:12;;;;;;;6.63;2.30;;;;;;;;;;5046659;28;20112;-80
2023/04/02 06:37:39;;;;;;;7.63;2.33;;;;;;;;;;5055715;28;20123;-80
2023/04/02 06:40:17;;;;;;;9.48;2.80;;;;;;;;;;5054585;28;20041;-80
2023/04/02 06:42:43;;;;;;;6.53;2.28;;;;;;;;;;5073037;28;20050;-80
2023/04/02 06:45:20;;;;;;;9.23;2.80;;;;;;;;;;5073528;28;20446;-80
2023/04/02 06:47:48;;;;;;;8.80;2.40;;;;;;;;;;5055540;28;20463;-80
2023/04/02 06:50:40;;;;;;;8.82;2.80;;;;;;;;;;5073554;28;20098;-80
2023/04/02 06:53:10;;;;;;;6.53;2.65;;;;;;;;;;5064003;28;20049;-80
2023/04/02 06:55:39;;;;;;;5.35;2.30;;;;;;;;;;5033521;28;20052;-80
2023/04/02 06:58:05;;;;;;;8.35;2.30;;;;;;;;;;5052264;28;20048;-80
2023/04/02 07:00:35;;;;;;;6.28;2.45;;;;;;;;;;5068788;28;20053;-80
2023/04/02 07:03:02;;;;;;;7.10;2.55;;;;;;;;;;5052863;28;20044;-80
2023/04/02 07:05:28;;;;;;;6.20;2.35;;;;;;;;;;5053178;28;20041;-80
2023/04/02 07:07:54;;;;;;;7.90;2.28;;;;;;;;;;5069017;28;20513;-80
2023/04/02 07:10:20;;;;;;;7.45;2.13;;;;;;;;;;5055014;28;20041;-80
2023/04/02 07:12:47;;;;;;;7.30;2.15;;;;;;;;;;5059291;28;20355;-80
2023/04/02 07:15:18;;;;;;;7.30;2.30;;;;;;;;;;5035452;28;20371;-80
2023/04/02 07:17:44;;;;;;;5.85;2.05;;;;;;;;;;5035024;28;20064;-80
2023/04/02 07:20:28;;;;;;;9.63;2.50;;;;;;;;;;5033118;28;20478;-80
2023/04/02 07:22:54;;;;;;;5.53;2.03;;;;;;;;;;5060220;28;20091;-80
2023/04/02 07:25:20;;;;;;;5.43;2.17;;;;;;;;;;5034411;28;20033;-80
2023/04/02 07:27:46;;;;;;;5.28;1.98;;;;;;;;;;5069647;28;20068;-80
2023/04/02 07:30:12;;;;;;;5.97;2.05;;;;;;;;;;5038190;28;20043;-80
2023/04/02 07:32:38;;;;;;;6.20;2.47;;;;;;;;;;5037371;28;20048;-80
2023/04/02 07:35:05;;;;;;;5.35;2.40;;;;;;;;;;5054543;28;20044;-80
2023/04/02 07:37:31;;;;;;;5.45;1.90;;;;;;;;;;5054400;28;20131;-82
2023/04/02 07:39:57;;;;;;;5.07;2.17;;;;;;;;;;5054900;28;20044;-80
2023/04/02 07:42:23;;;;;;;4.97;1.90;;;;;;;;;;5034328;28;20048;-80
2023/04/02 07:44:50;;;;;;;5.30;1.90;;;;;;;;;;5051533;28;20048;-80
2023/04/02 07:47:16;;;;;;;5.05;2.17;;;;;;;;;;5051980;28;20055;-80
2023/04/02 07:49:42;;;;;;;6.57;2.10;;;;;;;;;;5039057;28;20156;-79
2023/04/02 07:52:08;;;;;;;6.25;2.00;;;;;;;;;;5053996;28;20139;-80
2023/04/02 07:54:39;;;;;;;3.63;1.80;;;;;;;;;;5052874;28;20052;-80
2023/04/02 07:57:05;;;;;;;7.22;2.00;;;;;;;;;;5054536;28;20047;-80
2023/04/02 07:59:31;;;;;;;5.10;2.22;;;;;;;;;;5052797;28;20131;-80
2023/04/02 08:01:57;;;;;;;5.93;2.08;;;;;;;;;;5037921;28;20537;-80
2023/04/02 08:04:23;;;;;;;6.47;1.90;;;;;;;;;;5065430;28;20124;-81
2023/04/02 08:06:51;;;;;;;5.93;2.03;;;;;;;;;;5052379;28;20118;-81
2023/04/02 08:09:17;;;;;;;7.03;2.15;;;;;;;;;;5067313;28;20090;-79
2023/04/02 08:11:45;;;;;;;5.97;2.20;;;;;;;;;;5066734;28;20099;-79
2023/04/02 08:14:11;;;;;;;7.40;2.13;;;;;;;;;;5033950;28;20371;-79
2023/04/02 08:16:46;;;;;;;7.72;2.00;;;;;;;;;;5034451;28;20045;-78
2023/04/02 08:19:12;;;;;;;5.57;1.77;;;;;;;;;;5064120;28;20040;-79
2023/04/02 08:21:38;;;;;;;7.40;2.00;;;;;;;;;;5052293;28;20120;-78
2023/04/02 08:24:04;;;;;;;6.35;1.92;;;;;;;;;;5060389;28;20588;-79
2023/04/02 08:26:30;;;;;;;6.72;1.80;;;;;;;;;;5056522;28;20102;-79
2023/04/02 08:28:56;;;;;;;6.07;1.98;;;;;;;;;;5051804;28;20053;-80
2023/04/02 08:31:23;;;;;;;8.32;2.05;;;;;;;;;;5051868;28;20393;-80
2023/04/02 08:33:49;;;;;;;5.43;2.17;;;;;;;;;;5051290;28;20045;-80
2023/04/02 08:36:18;;;;;;;4.88;2.08;;;;;;;;;;5034372;28;20064;-80
2023/04/02 08:38:45;;;;;;;5.47;2.00;;;;;;;;;;5051721;28;20045;-80
2023/04/02 08:41:29;;;;;;;4.65;1.88;;;;;;;;;;5034024;28;20049;-79
2023/04/02 08:44:28;;;;;;;5.28;1.83;;;;;;;;;;5035211;28;20053;-80
2023/04/02 08:46:56;;;;;;;5.78;2.13;;;;;;;;;;5015900;28;20057;-79
2023/04/02 08:49:42;;;;;;;4.82;1.70;;;;;;;;;;5051821;28;20041;-80
2023/04/02 08:52:08;;;;;;;;;;;;;;;;;;5050644;28;20139;-79
2023/04/02 08:54:37;;;;;;;4.75;1.70;;;;;;;;;;5051120;28;20369;-80
2023/04/02 08:57:06;;;;;;;6.50;1.85;;;;;;;;;;5052056;28;20055;-80
2023/04/02 08:59:37;;;;;;;4.75;1.77;;;;;;;;;;5050888;28;20051;-79
2023/04/02 09:02:06;;;;;;;5.00;2.20;;;;;;;;;;5049969;28;20048;-79
2023/04/02 09:04:33;;;;;;;5.50;1.80;;;;;;;;;;5049646;28;20049;-80
2023/04/02 09:06:59;;;;;;;6.50;1.85;;;;;;;;;;5033819;28;20045;-78
2023/04/02 09:09:26;;;;;;;6.07;1.90;;;;;;;;;;5052211;28;20063;-79
2023/04/02 09:11:57;;;;;;;4.07;1.73;;;;;;;;;;5066156;28;20115;-79
2023/04/02 09:14:26;;;;;;;4.32;1.90;;;;;;;;;;5052537;28;20112;-81
2023/04/02 09:16:58;;;;;;;6.68;2.25;;;;;;;;;;5055233;28;20044;-77
2023/04/02 09:19:40;;;;;;;4.25;1.80;;;;;;;;;;5054918;28;20102;-77
2023/04/02 09:22:21;;;;;;;7.07;1.88;;;;;;;;;;5054838;28;20056;-77
2023/04/02 09:24:53;;;;;;;4.80;1.90;;;;;;;;;;5063035;28;20484;-78
2023/04/02 09:27:20;;;;;;;4.53;1.70;;;;;;;;;;5022358;28;20526;-82
2023/04/02 09:29:48;;;;;;;5.00;1.88;;;;;;;;;;5053827;28;20045;-80
2023/04/02 09:32:32;;;;;;;5.53;2.00;;;;;;;;;;5070773;28;20779;-80
2023/04/02 09:35:06;;;;;;;5.53;2.00;;;;;;;;;;5066243;28;20087;-80
2023/04/02 09:37:32;;;;;;;4.63;1.90;;;;;;;;;;5054736;28;20067;-80
2023/04/02 09:40:16;;;;;;;5.80;1.83;;;;;;;;;;5057096;28;20053;-80
2023/04/02 09:42:42;;;;;;;5.63;1.80;;;;;;;;;;5036279;28;20045;-80
2023/04/02 09:45:13;;;;;;;4.18;1.80;;;;;;;;;;5035148;28;20561;-81
2023/04/02 09:47:39;;;;;;;4.57;1.60;;;;;;;;;;5036522;28;20049;-79
2023/04/02 09:50:21;;;;;;;4.15;1.70;;;;;;;;;;5060091;28;20041;-81
2023/04/02 09:52:47;;;;;;;6.38;1.80;;;;;;;;;;5062273;28;20037;-81
2023/04/02 09:55:24;;;;;;;3.70;1.70;;;;;;;;;;5054306;28;20429;-80
2023/04/02 09:57:50;;;;;;;3.58;1.60;;;;;;;;;;5072323;28;20040;-81
2023/04/02 10:00:17;;;;;;;4.32;1.60;;;;;;;;;;5074117;28;20075;-81
2023/04/02 10:02:45;;;;;;;3.50;1.60;;;;;;;;;;5071701;28;20101;-81
2023/04/02 10:05:22;;;;;;;5.70;1.50;;;;;;;;;;5065581;28;20187;-79
2023/04/02 10:07:52;;;;;;;4.50;1.60;;;;;;;;;;5050411;28;20060;-79
2023/04/02 10:10:30;;;;;;;4.93;1.80;;;;;;;;;;5036042;28;20071;-79
2023/04/02 10:13:04;;;;;;;3.25;1.50;;;;;;;;;;5035076;28;20053;-80
2023/04/02 10:15:40;;;;;;;5.38;1.80;;;;;;;;;;5052790;28;20130;-79
2023/04/02 10:18:27;;;;;;;3.90;1.60;;;;;;;;;;5052132;28;20045;-80
2023/04/02 10:20:53;;;;;;;4.72;1.75;;;;;;;;;;5043237;28;20362;-80
2023/04/02 10:23:23;;;;;;;3.60;1.40;;;;;;;;;;5053272;28;20083;-79
2023/04/02 10:25:55;;;;;;;3.05;1.50;;;;;;;;;;5052637;28;20052;-79
2023/04/02 10:28:46;;;;;;;3.75;1.50;;;;;;;;;;5053107;28;20041;-79
2023/04/02 10:31:16;;;;;;;4.05;1.40;;;;;;;;;;5073260;28;20127;-80
2023/04/02 10:33:46;;;;;;;3.90;1.50;;;;;;;;;;5072816;28;20068;-80
2023/04/02 10:36:41;;;;;;;4.53;1.40;;;;;;;;;;5073630;28;20055;-80
2023/04/02 10:39:19;;;;;;;4.18;1.40;;;;;;;;;;5073148;28;20098;-80
2023/04/02 10:41:45;;;;;;;2.53;1.30;;;;;;;;;;5072868;28;20040;-78
2023/04/02 10:44:19;;;;;;;4.80;1.50;;;;;;;;;;5073092;28;20400;-77
2023/04/02 10:46:45;;;;;;;3.97;1.30;;;;;;;;;;5073385;28;20049;-77
2023/04/02 10:49:11;;;;;;;3.25;1.40;;;;;;;;;;5071135;28;20514;-77
2023/04/02 10:51:56;;;;;;;2.67;1.38;;;;;;;;;;5057919;28;20039;-77
2023/04/02 10:54:45;;;;;;;3.03;1.50;;;;;;;;;;5073113;28;20048;-77
2023/04/02 10:57:30;;;;;;;3.85;1.42;;;;;;;;;;5089473;28;20044;-77
2023/04/02 11:00:17;;;;;;;3.37;1.30;;;;;;;;;;5052737;28;20044;-77
2023/04/02 11:03:01;;;;;;;2.88;1.20;;;;;;;;;;5052620;28;20699;-75
2023/04/02 11:05:35;;;;;;;3.50;1.20;;;;;;;;;;5067629;28;20040;-75
2023/04/02 11:08:23;;;;;;;2.30;1.10;;;;;;;;;;5050873;28;20032;-75
2023/04/02 11:10:56;;;;;;;2.47;1.20;;;;;;;;;;5069685;28;20046;-75
2023/04/02 11:13:28;;;;;;;3.38;1.35;;;;;;;;;;5041847;28;20047;-75
2023/04/02 11:15:54;;;;;;;3.85;1.60;;;;;;;;;;5086806;28;20127;-75
2023/04/02 11:18:34;;;;;;;3.08;1.30;;;;;;;;;;5089125;28;20036;-75
2023/04/02 11:21:02;;;;;;;3.00;1.40;;;;;;;;;;5085115;28;20122;-75
2023/04/02 11:23:32;;;;;;;3.97;1.52;;;;;;;;;;5070583;28;20063;-75
2023/04/02 11:26:17;;;;;;;2.25;1.20;;;;;;;;;;5066531;28;20123;-75
2023/04/02 11:28:43;;;;;;;3.60;1.60;;;;;;;;;;5085940;28;20124;-75
2023/04/02 11:31:19;;;;;;;2.10;1.08;;;;;;;;;;5046315;28;20052;-75
2023/04/02 11:34:05;;;;;;;3.03;1.20;;;;;;;;;;5086363;28;20070;-76
2023/04/02 11:36:51;;;;;;;3.00;1.20;;;;;;;;;;5052787;28;20044;-76
2023/04/02 11:39:36;;;;;;;3.28;1.10;;;;;;;;;;5052939;28;20052;-76
2023/04/02 11:42:20;;;;;;;2.97;1.30;;;;;;;;;;5077113;28;20079;-76
2023/04/02 11:44:46;;;;;;;3.13;1.10;;;;;;;;;;5067626;28;20051;-75
2023/04/02 11:47:15;;;;;;;2.50;1.00;;;;;;;;;;5067274;28;20738;-75
2023/04/02 11:49:54;;;;;;;4.25;1.40;;;;;;;;;;5071899;28;20044;-75
2023/04/02 11:52:21;;;;;;;4.03;1.25;;;;;;;;;;5071990;28;20052;-75
2023/04/02 11:54:55;;;;;;;2.40;1.10;;;;;;;;;;5072368;28;20378;-75
2023/04/02 11:57:30;;;;;;;3.03;1.17;;;;;;;;;;5071639;28;20457;-75
2023/04/02 11:59:56;;;;;;;3.65;1.30;;;;;;;;;;5072485;28;20178;-75
2023/04/02 12:02:28;;;;;;;3.90;1.23;;;;;;;;;;5071683;28;20378;-75
2023/04/02 12:05:03;;;;;;;3.97;1.20;;;;;;;;;;5054031;28;20044;-75
2023/04/02 12:07:33;;;;;;;2.17;1.20;;;;;;;;;;5052471;28;20059;-74
2023/04/02 12:10:01;;;;;;;3.15;1.25;;;;;;;;;;5053825;28;20056;-74
2023/04/02 12:12:31;;;;;;;2.72;1.25;;;;;;;;;;5042572;28;20136;-75
2023/04/02 12:14:58;;;;;;;3.15;1.50;;;;;;;;;;5032750;28;20080;-74
2023/04/02 12:17:39;;;;;;;3.80;1.50;;;;;;;;;;5033514;28;20045;-74
2023/04/02 12:20:08;;;;;;;3.88;1.10;;;;;;;;;;5033685;28;20048;-75
2023/04/02 12:22:37;;;;;;;3.33;1.35;;;;;;;;;;5051332;28;20053;-75
2023/04/02 12:25:25;;;;;;;2.95;1.25;;;;;;;;;;5052057;28;20435;-75
2023/04/02 12:28:05;;;;;;;3.85;1.20;;;;;;;;;;5023954;28;20413;-74
2023/04/02 12:30:31;;;;;;;3.40;1.13;;;;;;;;;;5051624;28;20079;-75
2023/04/02 12:33:13;;;;;;;1.85;1.00;;;;;;;;;;5032949;28;20057;-75
2023/04/02 12:35:40;;;;;;;2.92;1.33;;;;;;;;;;5033845;28;20132;-74
2023/04/02 12:38:18;;;;;;;2.50;1.20;;;;;;;;;;5017083;28;20052;-75
2023/04/02 12:40:51;;;;;;;3.55;1.30;;;;;;;;;;5033373;28;20112;-74
2023/04/02 12:43:24;;;;;;;2.63;1.20;;;;;;;;;;5051420;28;20106;-74
2023/04/02 12:45:58;;;;;;;3.05;1.40;;;;;;;;;;5033681;28;20045;-74
2023/04/02 12:48:24;;;;;;;3.38;1.42;;;;;;;;;;5030840;28;20055;-74
2023/04/02 12:50:51;;;;;;;2.53;1.20;;;;;;;;;;5055389;28;20179;-74
2023/04/02 12:53:22;;;;;;;3.53;1.52;;;;;;;;;;5054797;28;20041;-74
2023/04/02 12:55:49;;;;;;;2.08;1.20;;;;;;;;;;5055793;28;20448;-74
2023/04/02 12:58:25;;;;;;;2.28;1.20;;;;;;;;;;5055098;28;20049;-74
2023/04/02 13:00:52;;;;;;;2.80;1.15;;;;;;;;;;5037523;28;20053;-74
2023/04/02 13:03:19;;;;;;;3.35;1.38;;;;;;;;;;5054964;28;20076;-74
2023/04/02 13:05:48;;;;;;;3.53;1.20;;;;;;;;;;5055603;28;20508;-74
2023/04/02 13:08:16;;;;;;;4.40;1.40;;;;;;;;;;5054990;28;20128;-74
2023/04/02 13:10:43;;;;;;;3.00;1.35;;;;;;;;;;5055417;28;20083;-74
2023/04/02 13:13:26;;;;;;;3.88;1.33;;;;;;;;;;5048250;28;20114;-74
2023/04/02 13:16:21;;;;;;;3.28;1.50;;;;;;;;;;5037492;28;20049;-73
2023/04/02 13:18:48;;;;;;;2.97;1.38;;;;;;;;;;5032347;28;20057;-74
2023/04/02 13:21:14;;;;;;;3.60;1.42;;;;;;;;;;5054917;28;20107;-73
2023/04/02 13:23:41;;;;;;;3.03;1.40;;;;;;;;;;5020165;28;20049;-73
2023/04/02 13:26:19;;;;;;;3.97;1.58;;;;;;;;;;5037012;28;20440;-73
2023/04/02 13:28:55;;;;;;;2.92;1.10;;;;;;;;;;5036430;28;20056;-73
2023/04/02 13:31:21;;;;;;;3.28;1.20;;;;;;;;;;5053156;28;20123;-73
2023/04/02 13:33:47;;;;;;;3.70;1.50;;;;;;;;;;5035911;28;20132;-73
2023/04/02 13:36:14;;;;;;;4.78;1.88;;;;;;;;;;5036975;28;20103;-73
2023/04/02 13:38:40;;;;;;;3.03;1.40;;;;;;;;;;5051828;28;20482;-74
2023/04/02 13:41:10;;;;;;;2.78;1.35;;;;;;;;;;5053200;28;20056;-74
2023/04/02 13:43:36;;;;;;;3.13;1.40;;;;;;;;;;5053129;28;20450;-73
2023/04/02 13:46:05;;;;;;;3.05;1.60;;;;;;;;;;5036746;28;20512;-74
2023/04/02 13:48:31;;;;;;;4.63;1.75;;;;;;;;;;5054273;28;20049;-76
2023/04/02 13:50:57;;;;;;;4.75;1.60;;;;;;;;;;5054487;28;20040;-74
2023/04/02 13:53:29;;;;;;;3.10;1.45;;;;;;;;;;5054132;28;20103;-74
2023/04/02 13:55:56;;;;;;;5.25;1.70;;;;;;;;;;5037023;28;20056;-74
2023/04/02 13:58:22;;;;;;;2.55;1.38;;;;;;;;;;5054048;28;20142;-74
2023/04/02 14:00:48;;;;;;;2.50;1.30;;;;;;;;;;5036135;28;20136;-74
2023/04/02 14:03:23;;;;;;;3.67;1.38;;;;;;;;;;5053698;28;20049;-74
2023/04/02 14:05:49;;;;;;;2.80;1.43;;;;;;;;;;5054430;28;20052;-74
2023/04/02 14:08:21;;;;;;;2.90;1.52;;;;;;;;;;5053915;28;20373;-74
2023/04/02 14:11:03;;;;;;;3.42;1.50;;;;;;;;;;5053880;28;20528;-74
2023/04/02 14:13:29;;;;;;;3.58;1.70;;;;;;;;;;5053486;28;20401;-74
2023/04/02 14:16:04;;;;;;;3.42;1.40;;;;;;;;;;5054107;28;20056;-73
2023/04/02 14:18:30;;;;;;;;;;;;;;;;;;5036646;28;20072;-74
2023/04/02 14:21:10;;;;;;;3.33;1.50;;;;;;;;;;5054017;28;20335;-73
2023/04/02 14:23:53;;;;;;;3.38;1.40;;;;;;;;;;5053643;28;20060;-74
2023/04/02 14:26:30;;;;;;;3.28;1.60;;;;;;;;;;5036343;28;20051;-74
2023/04/02 14:29:15;;;;;;;3.13;1.27;;;;;;;;;;5053831;28;20041;-74
2023/04/02 14:31:44;;;;;;;2.42;1.30;;;;;;;;;;5052667;28;20194;-75
2023/04/02 14:34:18;;;;;;;3.13;1.50;;;;;;;;;;5035516;28;20037;-74
2023/04/02 14:36:44;;;;;;;3.80;1.40;;;;;;;;;;5052512;28;20052;-75
2023/04/02 14:39:29;;;;;;;2.60;1.33;;;;;;;;;;5053325;28;20152;-74
2023/04/02 14:42:05;;;;;;;3.45;1.63;;;;;;;;;;5035627;28;20079;-74
2023/04/02 14:44:35;;;;;;;4.13;1.40;;;;;;;;;;5035534;28;20106;-74
2023/04/02 14:47:10;;;;;;;3.75;1.60;;;;;;;;;;5053533;28;20041;-76
2023/04/02 14:49:41;;;;;;;3.45;1.48;;;;;;;;;;5034604;28;20049;-76
2023/04/02 14:52:12;;;;;;;2.60;1.60;;;;;;;;;;5053205;28;20049;-76
2023/04/02 14:54:44;;;;;;;5.43;1.65;;;;;;;;;;5053278;28;20117;-76
2023/04/02 14:57:10;;;;;;;6.22;1.67;;;;;;;;;;5035626;28;20404;-77
2023/04/02 14:59:50;;;;;;;3.78;1.48;;;;;;;;;;5060126;28;20405;-76
2023/04/02 15:02:21;;;;;;;3.53;1.65;;;;;;;;;;5070427;28;20064;-76
2023/04/02 15:04:52;;;;;;;4.65;1.65;;;;;;;;;;5073080;28;20055;-76
2023/04/02 15:07:21;;;;;;;5.18;1.60;;;;;;;;;;5054810;28;20051;-76
2023/04/02 15:09:54;;;;;;;3.80;1.60;;;;;;;;;;5070452;28;20043;-75
2023/04/02 15:12:22;;;;;;;3.60;1.60;;;;;;;;;;5074125;28;20080;-76